sensor_id;sensor_type;location;lat;lon;timestamp;temperature;humidity
58933;DHT22;44716;51.022;6.818;2024-03-08T00:00:13;19.90;63.10
58933;DHT22;44716;51.022;6.818;2024-03-08T00:02:39;19.90;63.20
58933;DHT22;44716;51.022;6.818;2024-03-08T00:05:05;19.90;63.20
58933;DHT22;44716;51.022;6.818;2024-03-08T00:07:31;19.90;63.20
58933;DHT22;44716;51.022;6.818;2024-03-08T00:09:56;19.90;63.20
58933;DHT22;44716;51.022;6.818;2024-03-08T00:12:22;19.90;63.10
58933;DHT22;44716;51.022;6.818;2024-03-08T00:14:48;19.90;63.20
58933;DHT22;44716;51.022;6.818;2024-03-08T00:17:13;19.90;63.20
58933;DHT22;44716;51.022;6.818;2024-03-08T00:19:40;19.90;63.10
58933;DHT22;44716;51.022;6.818;2024-03-08T00:22:06;19.90;63.10
58933;DHT22;44716;51.022;6.818;2024-03-08T00:24:33;19.90;63.10
58933;DHT22;44716;51.022;6.818;2024-03-08T00:26:58;19.90;63.20
58933;DHT22;44716;51.022;6.818;2024-03-08T00:29:24;19.80;63.10
58933;DHT22;44716;51.022;6.818;2024-03-08T00:31:50;19.80;63.10
58933;DHT22;44716;51.022;6.818;2024-03-08T00:34:15;19.80;63.10
58933;DHT22;44716;51.022;6.818;2024-03-08T00:36:41;19.80;63.10
58933;DHT22;44716;51.022;6.818;2024-03-08T00:39:06;19.80;63.10
58933;DHT22;44716;51.022;6.818;2024-03-08T00:41:32;19.80;63.10
58933;DHT22;44716;51.022;6.818;2024-03-08T00:43:58;19.80;63.00
58933;DHT22;44716;51.022;6.818;2024-03-08T00:46:23;19.80;63.00
58933;DHT22;44716;51.022;6.818;2024-03-08T00:48:49;19.80;63.00
58933;DHT22;44716;51.022;6.818;2024-03-08T00:51:14;19.80;63.00
58933;DHT22;44716;51.022;6.818;2024-03-08T00:53:43;19.80;63.00
58933;DHT22;44716;51.022;6.818;2024-03-08T00:56:09;19.80;63.00
58933;DHT22;44716;51.022;6.818;2024-03-08T00:58:37;19.80;63.00
58933;DHT22;44716;51.022;6.818;2024-03-08T01:01:02;19.80;63.00
58933;DHT22;44716;51.022;6.818;2024-03-08T01:03:28;19.80;63.00
58933;DHT22;44716;51.022;6.818;2024-03-08T01:05:57;19.70;63.00
58933;DHT22;44716;51.022;6.818;2024-03-08T01:08:22;19.70;62.90
58933;DHT22;44716;51.022;6.818;2024-03-08T01:10:48;19.70;63.00
58933;DHT22;44716;51.022;6.818;2024-03-08T01:13:16;19.70;62.90
58933;DHT22;44716;51.022;6.818;2024-03-08T01:15:41;19.70;62.80
58933;DHT22;44716;51.022;6.818;2024-03-08T01:18:07;19.70;62.80
58933;DHT22;44716;51.022;6.818;2024-03-08T01:20:32;19.70;62.80
58933;DHT22;44716;51.022;6.818;2024-03-08T01:22:58;19.70;62.80
58933;DHT22;44716;51.022;6.818;2024-03-08T01:25:23;19.70;62.80
58933;DHT22;44716;51.022;6.818;2024-03-08T01:27:49;19.70;62.90
58933;DHT22;44716;51.022;6.818;2024-03-08T01:30:14;19.70;63.00
58933;DHT22;44716;51.022;6.818;2024-03-08T01:32:42;19.70;62.90
58933;DHT22;44716;51.022;6.818;2024-03-08T01:35:09;19.70;62.90
58933;DHT22;44716;51.022;6.818;2024-03-08T01:37:35;19.70;62.90
58933;DHT22;44716;51.022;6.818;2024-03-08T01:40:00;19.70;62.80
58933;DHT22;44716;51.022;6.818;2024-03-08T01:42:25;19.70;62.80
58933;DHT22;44716;51.022;6.818;2024-03-08T01:44:51;19.60;62.70
58933;DHT22;44716;51.022;6.818;2024-03-08T01:47:17;19.70;62.80
58933;DHT22;44716;51.022;6.818;2024-03-08T01:49:43;19.70;62.80
58933;DHT22;44716;51.022;6.818;2024-03-08T01:52:09;19.70;62.80
58933;DHT22;44716;51.022;6.818;2024-03-08T01:54:34;19.60;62.80
58933;DHT22;44716;51.022;6.818;2024-03-08T01:57:01;19.60;62.70
58933;DHT22;44716;51.022;6.818;2024-03-08T01:59:26;19.60;62.80
58933;DHT22;44716;51.022;6.818;2024-03-08T02:01:53;19.60;62.70
58933;DHT22;44716;51.022;6.818;2024-03-08T02:04:20;19.60;62.70
58933;DHT22;44716;51.022;6.818;2024-03-08T02:06:46;19.60;62.70
58933;DHT22;44716;51.022;6.818;2024-03-08T02:09:13;19.60;62.70
58933;DHT22;44716;51.022;6.818;2024-03-08T02:11:40;19.60;62.60
58933;DHT22;44716;51.022;6.818;2024-03-08T02:14:06;19.60;62.60
58933;DHT22;44716;51.022;6.818;2024-03-08T02:16:31;19.60;62.70
58933;DHT22;44716;51.022;6.818;2024-03-08T02:18:58;19.60;62.70
58933;DHT22;44716;51.022;6.818;2024-03-08T02:21:23;19.60;62.60
58933;DHT22;44716;51.022;6.818;2024-03-08T02:23:49;19.60;62.60
58933;DHT22;44716;51.022;6.818;2024-03-08T02:26:17;19.60;62.60
58933;DHT22;44716;51.022;6.818;2024-03-08T02:28:43;19.60;62.50
58933;DHT22;44716;51.022;6.818;2024-03-08T02:31:09;19.60;62.50
58933;DHT22;44716;51.022;6.818;2024-03-08T02:33:35;19.60;62.60
58933;DHT22;44716;51.022;6.818;2024-03-08T02:36:00;19.60;62.60
58933;DHT22;44716;51.022;6.818;2024-03-08T02:38:26;19.60;62.50
58933;DHT22;44716;51.022;6.818;2024-03-08T02:40:52;19.60;62.50
58933;DHT22;44716;51.022;6.818;2024-03-08T02:43:18;19.60;62.50
58933;DHT22;44716;51.022;6.818;2024-03-08T02:45:44;19.50;62.50
58933;DHT22;44716;51.022;6.818;2024-03-08T02:48:10;19.50;62.30
58933;DHT22;44716;51.022;6.818;2024-03-08T02:50:36;19.60;62.50
58933;DHT22;44716;51.022;6.818;2024-03-08T02:53:02;19.50;62.30
58933;DHT22;44716;51.022;6.818;2024-03-08T02:55:28;19.50;62.40
58933;DHT22;44716;51.022;6.818;2024-03-08T02:57:53;19.50;62.30
58933;DHT22;44716;51.022;6.818;2024-03-08T03:00:22;19.50;62.30
58933;DHT22;44716;51.022;6.818;2024-03-08T03:02:52;19.50;62.30
58933;DHT22;44716;51.022;6.818;2024-03-08T03:05:20;19.50;62.30
58933;DHT22;44716;51.022;6.818;2024-03-08T03:07:46;19.50;62.30
58933;DHT22;44716;51.022;6.818;2024-03-08T03:10:11;19.50;62.30
58933;DHT22;44716;51.022;6.818;2024-03-08T03:12:37;19.50;62.20
58933;DHT22;44716;51.022;6.818;2024-03-08T03:15:03;19.50;62.20
58933;DHT22;44716;51.022;6.818;2024-03-08T03:17:29;19.50;63.00
58933;DHT22;44716;51.022;6.818;2024-03-08T03:19:55;19.50;62.20
58933;DHT22;44716;51.022;6.818;2024-03-08T03:22:21;19.50;62.20
58933;DHT22;44716;51.022;6.818;2024-03-08T03:24:47;19.50;62.30
58933;DHT22;44716;51.022;6.818;2024-03-08T03:27:13;19.50;62.20
58933;DHT22;44716;51.022;6.818;2024-03-08T03:29:39;19.50;62.20
58933;DHT22;44716;51.022;6.818;2024-03-08T03:32:07;19.50;62.30
58933;DHT22;44716;51.022;6.818;2024-03-08T03:34:33;19.50;62.20
58933;DHT22;44716;51.022;6.818;2024-03-08T03:37:02;19.50;62.20
58933;DHT22;44716;51.022;6.818;2024-03-08T03:39:28;19.40;62.10
58933;DHT22;44716;51.022;6.818;2024-03-08T03:41:57;19.40;62.10
58933;DHT22;44716;51.022;6.818;2024-03-08T03:44:22;19.40;62.10
58933;DHT22;44716;51.022;6.818;2024-03-08T03:46:49;19.40;62.10
58933;DHT22;44716;51.022;6.818;2024-03-08T03:49:16;19.40;62.10
58933;DHT22;44716;51.022;6.818;2024-03-08T03:51:42;19.40;62.10
58933;DHT22;44716;51.022;6.818;2024-03-08T03:54:07;19.40;62.10
58933;DHT22;44716;51.022;6.818;2024-03-08T03:56:33;19.40;62.10
58933;DHT22;44716;51.022;6.818;2024-03-08T03:58:58;19.40;62.00
58933;DHT22;44716;51.022;6.818;2024-03-08T04:01:24;19.40;62.10
58933;DHT22;44716;51.022;6.818;2024-03-08T04:03:49;19.40;62.00
58933;DHT22;44716;51.022;6.818;2024-03-08T04:06:15;19.40;62.10
58933;DHT22;44716;51.022;6.818;2024-03-08T04:08:40;19.40;62.10
58933;DHT22;44716;51.022;6.818;2024-03-08T04:11:07;19.40;62.80
58933;DHT22;44716;51.022;6.818;2024-03-08T04:13:34;19.40;62.00
58933;DHT22;44716;51.022;6.818;2024-03-08T04:15:59;19.40;62.00
58933;DHT22;44716;51.022;6.818;2024-03-08T04:18:25;19.40;61.90
58933;DHT22;44716;51.022;6.818;2024-03-08T04:20:51;19.40;62.00
58933;DHT22;44716;51.022;6.818;2024-03-08T04:23:16;19.40;61.90
58933;DHT22;44716;51.022;6.818;2024-03-08T04:25:43;19.40;62.00
58933;DHT22;44716;51.022;6.818;2024-03-08T04:28:08;19.30;61.90
58933;DHT22;44716;51.022;6.818;2024-03-08T04:30:37;19.40;61.90
58933;DHT22;44716;51.022;6.818;2024-03-08T04:33:03;19.40;62.00
58933;DHT22;44716;51.022;6.818;2024-03-08T04:35:28;19.40;62.00
58933;DHT22;44716;51.022;6.818;2024-03-08T04:37:54;19.30;61.90
58933;DHT22;44716;51.022;6.818;2024-03-08T04:40:20;19.30;61.90
58933;DHT22;44716;51.022;6.818;2024-03-08T04:42:45;19.30;61.90
58933;DHT22;44716;51.022;6.818;2024-03-08T04:45:11;19.30;61.90
58933;DHT22;44716;51.022;6.818;2024-03-08T04:47:36;19.30;62.00
58933;DHT22;44716;51.022;6.818;2024-03-08T04:50:02;19.30;62.00
58933;DHT22;44716;51.022;6.818;2024-03-08T04:52:27;19.30;61.90
58933;DHT22;44716;51.022;6.818;2024-03-08T04:54:53;19.30;61.80
58933;DHT22;44716;51.022;6.818;2024-03-08T04:57:19;19.30;61.90
58933;DHT22;44716;51.022;6.818;2024-03-08T04:59:44;19.30;61.90
58933;DHT22;44716;51.022;6.818;2024-03-08T05:02:10;19.30;61.90
58933;DHT22;44716;51.022;6.818;2024-03-08T05:04:36;19.30;61.80
58933;DHT22;44716;51.022;6.818;2024-03-08T05:07:02;19.30;61.80
58933;DHT22;44716;51.022;6.818;2024-03-08T05:09:27;19.30;61.90
58933;DHT22;44716;51.022;6.818;2024-03-08T05:11:54;19.30;61.90
58933;DHT22;44716;51.022;6.818;2024-03-08T05:14:20;19.30;61.70
58933;DHT22;44716;51.022;6.818;2024-03-08T05:16:46;19.40;61.60
58933;DHT22;44716;51.022;6.818;2024-03-08T05:19:15;19.40;61.60
58933;DHT22;44716;51.022;6.818;2024-03-08T05:21:45;19.30;61.40
58933;DHT22;44716;51.022;6.818;2024-03-08T05:24:11;19.40;61.40
58933;DHT22;44716;51.022;6.818;2024-03-08T05:26:38;19.40;61.40
58933;DHT22;44716;51.022;6.818;2024-03-08T05:29:04;19.40;61.50
58933;DHT22;44716;51.022;6.818;2024-03-08T05:31:30;19.40;61.50
58933;DHT22;44716;51.022;6.818;2024-03-08T05:34:01;19.40;61.50
58933;DHT22;44716;51.022;6.818;2024-03-08T05:36:26;19.40;61.60
58933;DHT22;44716;51.022;6.818;2024-03-08T05:38:52;19.40;61.70
58933;DHT22;44716;51.022;6.818;2024-03-08T05:41:17;19.40;61.70
58933;DHT22;44716;51.022;6.818;2024-03-08T05:43:43;19.40;61.80
58933;DHT22;44716;51.022;6.818;2024-03-08T05:46:09;19.40;61.70
58933;DHT22;44716;51.022;6.818;2024-03-08T05:48:37;19.40;61.70
58933;DHT22;44716;51.022;6.818;2024-03-08T05:51:02;19.50;62.00
58933;DHT22;44716;51.022;6.818;2024-03-08T05:53:28;19.50;62.40
58933;DHT22;44716;51.022;6.818;2024-03-08T05:55:57;19.60;62.30
58933;DHT22;44716;51.022;6.818;2024-03-08T05:58:22;19.70;62.30
58933;DHT22;44716;51.022;6.818;2024-03-08T06:00:48;19.70;62.20
58933;DHT22;44716;51.022;6.818;2024-03-08T06:03:13;19.70;62.30
58933;DHT22;44716;51.022;6.818;2024-03-08T06:05:39;19.80;62.30
58933;DHT22;44716;51.022;6.818;2024-03-08T06:08:07;19.80;62.30
58933;DHT22;44716;51.022;6.818;2024-03-08T06:10:33;19.80;62.30
58933;DHT22;44716;51.022;6.818;2024-03-08T06:12:58;19.90;62.30
58933;DHT22;44716;51.022;6.818;2024-03-08T06:15:25;19.90;62.20
58933;DHT22;44716;51.022;6.818;2024-03-08T06:17:51;19.80;62.10
58933;DHT22;44716;51.022;6.818;2024-03-08T06:20:18;19.90;62.10
58933;DHT22;44716;51.022;6.818;2024-03-08T06:22:43;19.80;62.10
58933;DHT22;44716;51.022;6.818;2024-03-08T06:25:10;19.90;62.30
58933;DHT22;44716;51.022;6.818;2024-03-08T06:27:42;19.90;62.30
58933;DHT22;44716;51.022;6.818;2024-03-08T06:30:08;19.90;62.10
58933;DHT22;44716;51.022;6.818;2024-03-08T06:32:38;19.90;62.10
58933;DHT22;44716;51.022;6.818;2024-03-08T06:35:04;19.90;62.20
58933;DHT22;44716;51.022;6.818;2024-03-08T06:37:32;19.90;62.10
58933;DHT22;44716;51.022;6.818;2024-03-08T06:39:58;19.90;62.20
58933;DHT22;44716;51.022;6.818;2024-03-08T06:42:23;19.90;62.30
58933;DHT22;44716;51.022;6.818;2024-03-08T06:44:49;19.80;62.20
58933;DHT22;44716;51.022;6.818;2024-03-08T06:47:15;19.80;62.20
58933;DHT22;44716;51.022;6.818;2024-03-08T06:49:41;19.90;62.20
58933;DHT22;44716;51.022;6.818;2024-03-08T06:52:07;19.80;62.20
58933;DHT22;44716;51.022;6.818;2024-03-08T06:54:34;19.80;62.20
58933;DHT22;44716;51.022;6.818;2024-03-08T06:57:01;19.80;62.30
58933;DHT22;44716;51.022;6.818;2024-03-08T06:59:29;19.80;62.30
58933;DHT22;44716;51.022;6.818;2024-03-08T07:01:54;19.80;61.80
58933;DHT22;44716;51.022;6.818;2024-03-08T07:04:20;19.80;61.90
58933;DHT22;44716;51.022;6.818;2024-03-08T07:06:47;19.80;62.30
58933;DHT22;44716;51.022;6.818;2024-03-08T07:09:15;19.70;62.50
58933;DHT22;44716;51.022;6.818;2024-03-08T07:11:42;19.70;62.60
58933;DHT22;44716;51.022;6.818;2024-03-08T07:14:08;19.70;62.60
58933;DHT22;44716;51.022;6.818;2024-03-08T07:16:34;19.70;62.70
58933;DHT22;44716;51.022;6.818;2024-03-08T07:19:01;19.70;62.70
58933;DHT22;44716;51.022;6.818;2024-03-08T07:21:26;19.60;62.70
58933;DHT22;44716;51.022;6.818;2024-03-08T07:23:52;19.60;62.80
58933;DHT22;44716;51.022;6.818;2024-03-08T07:26:26;19.60;62.80
58933;DHT22;44716;51.022;6.818;2024-03-08T07:28:52;19.60;62.70
58933;DHT22;44716;51.022;6.818;2024-03-08T07:31:20;19.60;62.80
58933;DHT22;44716;51.022;6.818;2024-03-08T07:34:08;19.60;62.80
58933;DHT22;44716;51.022;6.818;2024-03-08T07:36:34;19.60;62.90
58933;DHT22;44716;51.022;6.818;2024-03-08T07:39:02;19.60;63.40
58933;DHT22;44716;51.022;6.818;2024-03-08T07:41:29;19.70;62.80
58933;DHT22;44716;51.022;6.818;2024-03-08T07:43:55;19.80;62.80
58933;DHT22;44716;51.022;6.818;2024-03-08T07:46:21;19.90;62.40
58933;DHT22;44716;51.022;6.818;2024-03-08T07:48:46;19.90;62.20
58933;DHT22;44716;51.022;6.818;2024-03-08T07:51:12;20.00;62.10
58933;DHT22;44716;51.022;6.818;2024-03-08T07:53:37;20.00;62.20
58933;DHT22;44716;51.022;6.818;2024-03-08T07:56:03;20.00;62.10
58933;DHT22;44716;51.022;6.818;2024-03-08T07:58:30;20.00;61.90
58933;DHT22;44716;51.022;6.818;2024-03-08T08:00:55;20.00;61.90
58933;DHT22;44716;51.022;6.818;2024-03-08T08:03:21;20.00;61.70
58933;DHT22;44716;51.022;6.818;2024-03-08T08:05:47;20.00;61.80
58933;DHT22;44716;51.022;6.818;2024-03-08T08:08:14;20.00;61.70
58933;DHT22;44716;51.022;6.818;2024-03-08T08:10:40;19.90;61.70
58933;DHT22;44716;51.022;6.818;2024-03-08T08:13:05;19.90;61.80
58933;DHT22;44716;51.022;6.818;2024-03-08T08:15:31;19.90;62.10
58933;DHT22;44716;51.022;6.818;2024-03-08T08:17:59;19.90;61.90
58933;DHT22;44716;51.022;6.818;2024-03-08T08:20:25;19.90;61.90
58933;DHT22;44716;51.022;6.818;2024-03-08T08:22:51;19.80;62.10
58933;DHT22;44716;51.022;6.818;2024-03-08T08:25:17;19.80;62.10
58933;DHT22;44716;51.022;6.818;2024-03-08T08:27:45;19.80;62.20
58933;DHT22;44716;51.022;6.818;2024-03-08T08:30:11;19.80;62.10
58933;DHT22;44716;51.022;6.818;2024-03-08T08:32:37;19.80;62.20
58933;DHT22;44716;51.022;6.818;2024-03-08T08:35:04;19.70;62.20
58933;DHT22;44716;51.022;6.818;2024-03-08T08:37:31;19.70;62.20
58933;DHT22;44716;51.022;6.818;2024-03-08T08:39:57;19.70;62.30
58933;DHT22;44716;51.022;6.818;2024-03-08T08:42:23;19.80;62.20
58933;DHT22;44716;51.022;6.818;2024-03-08T08:44:48;19.70;63.00
58933;DHT22;44716;51.022;6.818;2024-03-08T08:47:16;19.70;62.30
58933;DHT22;44716;51.022;6.818;2024-03-08T08:49:44;19.70;62.20
58933;DHT22;44716;51.022;6.818;2024-03-08T08:52:11;19.70;62.20
58933;DHT22;44716;51.022;6.818;2024-03-08T08:54:36;19.80;62.20
58933;DHT22;44716;51.022;6.818;2024-03-08T08:57:02;19.80;62.30
58933;DHT22;44716;51.022;6.818;2024-03-08T08:59:33;19.80;62.10
58933;DHT22;44716;51.022;6.818;2024-03-08T09:01:59;19.80;63.00
58933;DHT22;44716;51.022;6.818;2024-03-08T09:04:26;19.80;62.30
58933;DHT22;44716;51.022;6.818;2024-03-08T09:06:51;19.80;62.20
58933;DHT22;44716;51.022;6.818;2024-03-08T09:09:17;19.80;62.30
58933;DHT22;44716;51.022;6.818;2024-03-08T09:11:42;19.80;62.30
58933;DHT22;44716;51.022;6.818;2024-03-08T09:14:08;19.70;62.30
58933;DHT22;44716;51.022;6.818;2024-03-08T09:16:34;19.70;62.30
58933;DHT22;44716;51.022;6.818;2024-03-08T09:19:00;19.70;62.40
58933;DHT22;44716;51.022;6.818;2024-03-08T09:21:25;19.80;62.40
58933;DHT22;44716;51.022;6.818;2024-03-08T09:23:52;19.80;62.30
58933;DHT22;44716;51.022;6.818;2024-03-08T09:26:18;19.80;62.40
58933;DHT22;44716;51.022;6.818;2024-03-08T09:28:44;19.70;62.40
58933;DHT22;44716;51.022;6.818;2024-03-08T09:31:11;19.70;62.40
58933;DHT22;44716;51.022;6.818;2024-03-08T09:33:36;19.70;62.40
58933;DHT22;44716;51.022;6.818;2024-03-08T09:36:02;19.70;62.50
58933;DHT22;44716;51.022;6.818;2024-03-08T09:38:29;19.70;62.50
58933;DHT22;44716;51.022;6.818;2024-03-08T09:40:54;19.70;62.40
58933;DHT22;44716;51.022;6.818;2024-03-08T09:43:22;19.70;62.40
58933;DHT22;44716;51.022;6.818;2024-03-08T09:45:49;19.70;62.40
58933;DHT22;44716;51.022;6.818;2024-03-08T09:48:14;19.70;62.40
58933;DHT22;44716;51.022;6.818;2024-03-08T09:50:42;19.70;62.40
58933;DHT22;44716;51.022;6.818;2024-03-08T09:53:08;19.70;62.50
58933;DHT22;44716;51.022;6.818;2024-03-08T09:55:37;19.70;62.40
58933;DHT22;44716;51.022;6.818;2024-03-08T09:58:03;19.70;62.50
58933;DHT22;44716;51.022;6.818;2024-03-08T10:00:49;19.70;62.50
58933;DHT22;44716;51.022;6.818;2024-03-08T10:03:14;19.70;62.50
58933;DHT22;44716;51.022;6.818;2024-03-08T10:05:40;19.70;62.50
58933;DHT22;44716;51.022;6.818;2024-03-08T10:08:06;19.70;62.40
58933;DHT22;44716;51.022;6.818;2024-03-08T10:10:35;19.70;62.30
58933;DHT22;44716;51.022;6.818;2024-03-08T10:13:01;19.70;62.30
58933;DHT22;44716;51.022;6.818;2024-03-08T10:15:27;19.80;62.30
58933;DHT22;44716;51.022;6.818;2024-03-08T10:17:53;19.80;62.30
58933;DHT22;44716;51.022;6.818;2024-03-08T10:20:19;19.80;62.10
58933;DHT22;44716;51.022;6.818;2024-03-08T10:22:44;19.80;61.90
58933;DHT22;44716;51.022;6.818;2024-03-08T10:25:13;19.80;61.90
58933;DHT22;44716;51.022;6.818;2024-03-08T10:27:39;19.80;61.90
58933;DHT22;44716;51.022;6.818;2024-03-08T10:30:10;19.90;61.90
58933;DHT22;44716;51.022;6.818;2024-03-08T10:32:35;19.90;61.90
58933;DHT22;44716;51.022;6.818;2024-03-08T10:35:01;19.90;61.90
58933;DHT22;44716;51.022;6.818;2024-03-08T10:37:26;19.90;61.90
58933;DHT22;44716;51.022;6.818;2024-03-08T10:40:04;19.90;61.90
58933;DHT22;44716;51.022;6.818;2024-03-08T10:42:39;19.90;61.90
58933;DHT22;44716;51.022;6.818;2024-03-08T10:45:05;19.90;61.90
58933;DHT22;44716;51.022;6.818;2024-03-08T10:47:39;19.90;61.90
58933;DHT22;44716;51.022;6.818;2024-03-08T10:52:35;19.90;62.00
58933;DHT22;44716;51.022;6.818;2024-03-08T10:55:02;19.80;61.90
58933;DHT22;44716;51.022;6.818;2024-03-08T10:57:27;19.80;61.90
58933;DHT22;44716;51.022;6.818;2024-03-08T10:59:53;19.80;62.00
58933;DHT22;44716;51.022;6.818;2024-03-08T11:02:20;19.80;62.10
58933;DHT22;44716;51.022;6.818;2024-03-08T11:04:46;19.80;62.10
58933;DHT22;44716;51.022;6.818;2024-03-08T11:07:12;19.80;62.10
58933;DHT22;44716;51.022;6.818;2024-03-08T11:09:42;19.80;62.10
58933;DHT22;44716;51.022;6.818;2024-03-08T11:12:21;19.80;62.10
58933;DHT22;44716;51.022;6.818;2024-03-08T11:14:47;19.80;62.10
58933;DHT22;44716;51.022;6.818;2024-03-08T11:17:20;19.80;62.10
58933;DHT22;44716;51.022;6.818;2024-03-08T11:19:46;19.80;62.20
58933;DHT22;44716;51.022;6.818;2024-03-08T11:22:27;19.80;62.10
58933;DHT22;44716;51.022;6.818;2024-03-08T11:24:53;19.80;62.10
58933;DHT22;44716;51.022;6.818;2024-03-08T11:27:19;19.80;62.20
58933;DHT22;44716;51.022;6.818;2024-03-08T11:29:59;19.80;62.30
58933;DHT22;44716;51.022;6.818;2024-03-08T11:32:29;19.80;62.30
58933;DHT22;44716;51.022;6.818;2024-03-08T11:34:54;19.80;62.30
58933;DHT22;44716;51.022;6.818;2024-03-08T11:37:20;19.80;62.20
58933;DHT22;44716;51.022;6.818;2024-03-08T11:39:53;19.80;62.20
58933;DHT22;44716;51.022;6.818;2024-03-08T11:42:24;19.80;62.20
58933;DHT22;44716;51.022;6.818;2024-03-08T11:44:51;19.80;62.10
58933;DHT22;44716;51.022;6.818;2024-03-08T11:47:17;19.80;62.10
58933;DHT22;44716;51.022;6.818;2024-03-08T11:49:43;19.80;62.00
58933;DHT22;44716;51.022;6.818;2024-03-08T11:52:13;19.80;61.90
58933;DHT22;44716;51.022;6.818;2024-03-08T11:54:39;19.90;61.90
58933;DHT22;44716;51.022;6.818;2024-03-08T11:57:04;19.90;61.80
58933;DHT22;44716;51.022;6.818;2024-03-08T11:59:30;19.90;61.70
58933;DHT22;44716;51.022;6.818;2024-03-08T12:02:05;19.90;61.60
58933;DHT22;44716;51.022;6.818;2024-03-08T12:04:31;19.90;61.60
58933;DHT22;44716;51.022;6.818;2024-03-08T12:07:00;19.90;61.60
58933;DHT22;44716;51.022;6.818;2024-03-08T12:09:34;20.00;61.60
58933;DHT22;44716;51.022;6.818;2024-03-08T12:12:01;19.90;61.70
58933;DHT22;44716;51.022;6.818;2024-03-08T12:14:28;20.00;62.50
58933;DHT22;44716;51.022;6.818;2024-03-08T12:16:54;19.90;61.60
58933;DHT22;44716;51.022;6.818;2024-03-08T12:19:19;19.90;61.60
58933;DHT22;44716;51.022;6.818;2024-03-08T12:21:45;19.90;61.60
58933;DHT22;44716;51.022;6.818;2024-03-08T12:24:16;19.90;61.60
58933;DHT22;44716;51.022;6.818;2024-03-08T12:26:45;19.90;61.60
58933;DHT22;44716;51.022;6.818;2024-03-08T12:29:26;20.00;62.50
58933;DHT22;44716;51.022;6.818;2024-03-08T12:31:57;19.90;61.70
58933;DHT22;44716;51.022;6.818;2024-03-08T12:34:26;20.00;61.70
58933;DHT22;44716;51.022;6.818;2024-03-08T12:36:57;20.00;61.70
58933;DHT22;44716;51.022;6.818;2024-03-08T12:39:23;19.90;61.70
58933;DHT22;44716;51.022;6.818;2024-03-08T12:41:52;19.90;61.70
58933;DHT22;44716;51.022;6.818;2024-03-08T12:44:18;19.90;61.70
58933;DHT22;44716;51.022;6.818;2024-03-08T12:46:44;19.90;61.70
58933;DHT22;44716;51.022;6.818;2024-03-08T12:49:10;19.90;61.70
58933;DHT22;44716;51.022;6.818;2024-03-08T12:51:36;19.90;61.70
58933;DHT22;44716;51.022;6.818;2024-03-08T12:54:04;19.90;61.60
58933;DHT22;44716;51.022;6.818;2024-03-08T12:56:33;19.90;61.60
58933;DHT22;44716;51.022;6.818;2024-03-08T12:58:59;20.00;61.70
58933;DHT22;44716;51.022;6.818;2024-03-08T13:01:25;20.00;61.60
58933;DHT22;44716;51.022;6.818;2024-03-08T13:03:52;20.00;61.60
58933;DHT22;44716;51.022;6.818;2024-03-08T13:06:18;19.90;61.60
58933;DHT22;44716;51.022;6.818;2024-03-08T13:08:44;20.00;61.60
58933;DHT22;44716;51.022;6.818;2024-03-08T13:11:10;20.00;61.60
58933;DHT22;44716;51.022;6.818;2024-03-08T13:13:42;20.00;61.40
58933;DHT22;44716;51.022;6.818;2024-03-08T13:16:08;20.00;61.40
58933;DHT22;44716;51.022;6.818;2024-03-08T13:18:34;20.10;61.40
58933;DHT22;44716;51.022;6.818;2024-03-08T13:21:00;20.10;61.30
58933;DHT22;44716;51.022;6.818;2024-03-08T13:23:30;20.10;61.20
58933;DHT22;44716;51.022;6.818;2024-03-08T13:25:55;20.10;61.20
58933;DHT22;44716;51.022;6.818;2024-03-08T13:28:22;20.10;61.10
58933;DHT22;44716;51.022;6.818;2024-03-08T13:30:53;20.20;61.10
58933;DHT22;44716;51.022;6.818;2024-03-08T13:33:19;20.20;61.00
58933;DHT22;44716;51.022;6.818;2024-03-08T13:35:45;20.20;61.00
58933;DHT22;44716;51.022;6.818;2024-03-08T13:38:11;20.20;61.00
58933;DHT22;44716;51.022;6.818;2024-03-08T13:40:38;20.20;61.00
58933;DHT22;44716;51.022;6.818;2024-03-08T13:43:05;20.20;61.00
58933;DHT22;44716;51.022;6.818;2024-03-08T13:45:33;20.20;61.00
58933;DHT22;44716;51.022;6.818;2024-03-08T13:48:03;20.20;61.00
58933;DHT22;44716;51.022;6.818;2024-03-08T13:50:30;20.20;60.90
58933;DHT22;44716;51.022;6.818;2024-03-08T13:52:55;20.20;60.90
58933;DHT22;44716;51.022;6.818;2024-03-08T13:55:21;20.30;60.90
58933;DHT22;44716;51.022;6.818;2024-03-08T13:57:50;20.30;60.90
58933;DHT22;44716;51.022;6.818;2024-03-08T14:00:16;20.30;60.90
58933;DHT22;44716;51.022;6.818;2024-03-08T14:02:42;20.30;60.90
58933;DHT22;44716;51.022;6.818;2024-03-08T14:05:08;20.30;60.80
58933;DHT22;44716;51.022;6.818;2024-03-08T14:07:34;20.30;60.80
58933;DHT22;44716;51.022;6.818;2024-03-08T14:10:00;20.30;60.80
58933;DHT22;44716;51.022;6.818;2024-03-08T14:12:25;20.30;60.80
58933;DHT22;44716;51.022;6.818;2024-03-08T14:14:52;20.30;60.80
58933;DHT22;44716;51.022;6.818;2024-03-08T14:17:17;20.40;61.60
58933;DHT22;44716;51.022;6.818;2024-03-08T14:19:43;20.40;60.70
58933;DHT22;44716;51.022;6.818;2024-03-08T14:22:09;20.40;60.70
58933;DHT22;44716;51.022;6.818;2024-03-08T14:24:42;20.50;60.70
58933;DHT22;44716;51.022;6.818;2024-03-08T14:27:08;20.40;60.60
58933;DHT22;44716;51.022;6.818;2024-03-08T14:29:35;20.50;60.60
58933;DHT22;44716;51.022;6.818;2024-03-08T14:32:00;20.50;60.50
58933;DHT22;44716;51.022;6.818;2024-03-08T14:34:26;20.50;60.50
58933;DHT22;44716;51.022;6.818;2024-03-08T14:36:54;20.50;60.50
58933;DHT22;44716;51.022;6.818;2024-03-08T14:39:20;20.50;60.50
58933;DHT22;44716;51.022;6.818;2024-03-08T14:41:47;20.50;60.50
58933;DHT22;44716;51.022;6.818;2024-03-08T14:44:13;20.50;60.50
58933;DHT22;44716;51.022;6.818;2024-03-08T14:46:38;20.50;60.40
58933;DHT22;44716;51.022;6.818;2024-03-08T14:49:04;20.60;60.40
58933;DHT22;44716;51.022;6.818;2024-03-08T14:51:29;20.60;60.50
58933;DHT22;44716;51.022;6.818;2024-03-08T14:53:56;20.60;60.50
58933;DHT22;44716;51.022;6.818;2024-03-08T14:56:22;20.60;60.50
58933;DHT22;44716;51.022;6.818;2024-03-08T14:58:48;20.60;60.40
58933;DHT22;44716;51.022;6.818;2024-03-08T15:01:17;20.60;60.40
58933;DHT22;44716;51.022;6.818;2024-03-08T15:03:47;20.60;60.30
58933;DHT22;44716;51.022;6.818;2024-03-08T15:06:13;20.60;60.40
58933;DHT22;44716;51.022;6.818;2024-03-08T15:08:40;20.60;60.30
58933;DHT22;44716;51.022;6.818;2024-03-08T15:11:06;20.70;60.30
58933;DHT22;44716;51.022;6.818;2024-03-08T15:13:32;20.70;60.40
58933;DHT22;44716;51.022;6.818;2024-03-08T15:16:08;20.70;60.30
58933;DHT22;44716;51.022;6.818;2024-03-08T15:18:34;20.70;60.30
58933;DHT22;44716;51.022;6.818;2024-03-08T15:21:00;20.70;60.30
58933;DHT22;44716;51.022;6.818;2024-03-08T15:23:26;20.70;60.20
58933;DHT22;44716;51.022;6.818;2024-03-08T15:25:51;20.80;60.10
58933;DHT22;44716;51.022;6.818;2024-03-08T15:28:17;20.80;60.00